Latest Weather Observations for Red Rocks Point

IDW60801

Issued at 9:33 pm WST Saturday 27 May 2017 (issued every 30 minutes, with the page automatically refreshed every 10 minutes)

About weather observations | Map of weather stations | Latest weather observations for WA | Other Formats
Station Details ID: 011053 Name: RED ROCKS POINT Lat: -32.20 Lon: 127.53 Height: 3.1 m
Data from the previous 72 hours. | See also: Recent months at Red Rocks Point
Date/Time
WST
Temp
°C
App
Temp
°C
Dew
Point
°C
Rel
Hum
%
Delta-T
°C
Wind Press
QNH
hPa
Press
MSL
hPa
Rain since
9am
mm
Dir  Spd
km/h
Gust
km/h
Spd
kts
Gust
kts
27/09:30pm 15.0 11.7 10.8 76 2.2 SSW 19 30 10 16 1022.9 1022.9 1.2
27/09:00pm 15.4 12.1 11.0 75 2.3 SSW 19 30 10 16 1022.8 1022.8 1.0
27/08:30pm 15.2 12.0 9.8 70 2.8 SW 17 24 9 13 1022.8 1022.8 1.0
27/08:00pm 14.2 12.4 9.6 74 2.4 W 9 17 5 9 1022.6 1022.6 1.0
27/07:30pm 15.3 12.6 10.3 72 2.6 SW 15 20 8 11 1022.6 1022.6 1.0
27/07:00pm 15.3 12.0 9.7 69 2.9 SW 17 24 9 13 1022.3 1022.3 1.0
27/06:30pm 15.1 11.6 10.1 72 2.6 SW 19 30 10 16 1022.1 1022.1 1.0
27/06:00pm 15.1 11.0 10.1 72 2.6 SW 22 33 12 18 1021.8 1021.8 1.0
27/05:30pm 15.3 11.6 10.3 72 2.6 SW 20 30 11 16 1021.5 1021.5 1.0
27/05:00pm 14.5 10.2 10.7 78 2.0 SW 24 35 13 19 1021.2 1021.2 1.0
27/04:30pm 15.6 12.2 10.4 71 2.7 SW 19 32 10 17 1020.8 1020.8 0.8
27/04:00pm 15.5 12.1 10.5 72 2.6 SW 19 28 10 15 1020.7 1020.7 0.8
27/03:30pm 15.2 10.3 11.4 78 2.0 SSW 28 41 15 22 1020.7 1020.7 0.8
27/03:00pm 16.2 11.6 11.2 72 2.7 SW 26 41 14 22 1020.5 1020.5 0.8
27/02:30pm 18.0 14.3 10.1 60 4.2 WSW 20 32 11 17 1020.1 1020.1 0.8
27/02:00pm 17.5 12.8 9.4 59 4.2 SW 24 35 13 19 1020.0 1020.0 0.8
27/01:30pm 17.8 13.4 10.4 62 3.9 SW 24 39 13 21 1020.0 1020.0 0.8
27/01:00pm 17.3 13.5 11.1 67 3.3 SW 22 35 12 19 1020.0 1020.0 0.8
27/12:30pm 16.0 13.6 12.6 80 1.9 WSW 17 32 9 17 1020.0 1020.0 0.8
27/12:00pm 15.3 12.8 13.5 89 1.0 SW 19 28 10 15 1020.1 1020.1 0.8
27/11:30am 14.6 12.0 13.3 92 0.7 WSW 19 30 10 16 1020.6 1020.6 0.8
27/11:00am 14.4 11.8 13.1 92 0.7 WSW 19 30 10 16 1020.8 1020.8 0.6
27/10:30am 14.1 11.8 13.0 93 0.6 SW 17 32 9 17 1020.8 1020.8 0.2
27/10:00am 15.0 14.2 14.0 94 0.6 WNW 11 15 6 8 1020.6 1020.6 0.0
27/09:30am 13.9 12.8 13.0 94 0.5 WNW 11 15 6 8 1020.6 1020.6 0.0
27/09:00am 13.3 11.6 12.4 94 0.5 WNW 13 20 7 11 1020.7 1020.7 1.4
27/08:30am 14.5 13.6 13.7 95 0.4 WSW 11 19 6 10 1020.2 1020.2 1.0
27/08:00am 12.5 10.6 11.7 95 0.4 NW 13 15 7 8 1020.0 1020.0 1.0
27/07:30am 11.5 8.5 10.7 95 0.4 NW 17 24 9 13 1019.9 1019.9 1.0
27/07:00am 10.3 7.0 9.5 95 0.4 WNW 17 20 9 11 1019.5 1019.5 1.0
27/06:30am 9.8 6.0 9.0 95 0.4 NW 19 24 10 13 1019.3 1019.3 1.0
27/06:00am 9.7 6.2 8.9 95 0.4 NW 17 20 9 11 1018.8 1018.8 0.0
27/05:30am 9.8 6.3 8.9 94 0.4 NW 17 20 9 11 1018.5 1018.5 0.0
27/05:00am 9.7 6.2 8.8 94 0.4 NW 17 20 9 11 1018.2 1018.2 0.0
27/04:30am 10.1 6.7 9.2 94 0.4 NW 17 22 9 12 1018.0 1018.0 0.0
27/04:00am 10.1 6.7 9.2 94 0.4 NW 17 20 9 11 1018.0 1018.0 0.0
27/03:30am 10.3 7.0 9.4 94 0.4 NW 17 20 9 11 1017.8 1017.8 0.0
27/03:00am 10.2 6.8 9.3 94 0.4 NW 17 20 9 11 1017.8 1017.8 0.0
27/02:30am 10.1 6.7 9.2 94 0.4 NW 17 20 9 11 1017.8 1017.8 0.0
27/02:00am 10.2 6.8 9.3 94 0.4 NW 17 20 9 11 1017.8 1017.8 0.0
27/01:30am 10.0 6.5 8.9 93 0.5 NW 17 20 9 11 1017.9 1017.9 0.0
27/01:00am 10.5 7.2 9.4 93 0.5 NW 17 19 9 10 1017.8 1017.8 0.0
27/12:30am 10.5 7.2 9.4 93 0.5 NW 17 20 9 11 1017.7 1017.7 0.0
27/12:00am 11.0 7.8 9.8 92 0.6 NW 17 19 9 10 1017.8 1017.8 0.0
 
Date/Time
WST
Temp
°C
App
Temp
°C
Dew
Point
°C
Rel
Hum
%
Delta-T
°C
Wind Press
QNH
hPa
Press
MSL
hPa
Rain since
9am
mm
Dir  Spd
km/h
Gust
km/h
Spd
kts
Gust
kts
26/11:30pm 11.5 8.7 10.1 91 0.7 NW 15 17 8 9 1017.9 1017.9 0.0
26/11:00pm 12.1 9.7 10.2 88 1.0 NW 13 17 7 9 1017.8 1017.8 0.0
26/10:30pm 14.5 13.9 12.2 86 1.2 WNW 7 9 4 5 1017.8 1017.8 0.0
26/10:00pm 16.0 15.3 13.3 84 1.5 WSW 9 11 5 6 1017.8 1017.8 0.0
26/09:30pm 16.6 15.3 13.7 83 1.6 SW 13 17 7 9 1017.8 1017.8 0.0
26/09:00pm 17.0 15.1 14.3 84 1.5 SW 17 20 9 11 1017.9 1017.9 0.0
26/08:30pm 17.2 15.4 14.5 84 1.6 SW 17 22 9 12 1018.0 1018.0 0.0
26/08:00pm 17.0 15.5 14.3 84 1.5 SW 15 20 8 11 1017.7 1017.7 0.0
26/07:30pm 16.9 15.6 13.8 82 1.8 SW 13 19 7 10 1017.4 1017.4 0.0
26/07:00pm 17.3 15.3 13.8 80 2.0 SW 17 24 9 13 1017.1 1017.1 0.0
26/06:30pm 17.6 15.1 13.5 77 2.3 SW 19 28 10 15 1016.9 1016.9 0.0
26/06:00pm 17.8 15.6 13.3 75 2.5 SW 17 26 9 14 1016.7 1016.7 0.0
26/05:30pm 17.6 15.5 12.3 71 2.9 SW 15 20 8 11 1016.4 1016.4 0.0
26/05:00pm 17.9 16.2 12.4 70 3.0 SW 13 20 7 11 1016.2 1016.2 0.0
26/04:30pm 18.2 15.9 11.7 66 3.6 SW 15 20 8 11 1015.9 1015.9 0.0
26/04:00pm 19.1 17.2 11.9 63 4.0 SW 13 20 7 11 1015.6 1015.6 0.0
26/03:30pm 20.5 18.7 12.2 59 4.6 SW 13 20 7 11 1015.3 1015.3 0.0
26/03:00pm 21.4 18.7 11.7 54 5.4 SSW 17 22 9 12 1015.1 1015.1 0.0
26/02:30pm 22.6 21.1 12.0 51 6.0 SSW 11 17 6 9 1014.8 1014.8 0.0
26/02:00pm 24.4 20.5 5.2 29 9.7 SW 15 24 8 13 1014.8 1014.8 0.0
26/01:30pm 25.3 21.4 3.3 24 10.8 W 13 20 7 11 1014.7 1014.7 0.0
26/01:00pm 25.3 21.8 3.3 24 10.8 W 11 20 6 11 1015.1 1015.1 0.0
26/12:30pm 24.5 20.0 4.3 27 10.0 NW 17 30 9 16 1015.6 1015.6 0.0
26/12:00pm 24.5 20.1 4.8 28 9.9 WNW 17 26 9 14 1016.0 1016.0 0.0
26/11:30am 24.0 19.8 5.8 31 9.3 NW 17 30 9 16 1016.6 1016.6 0.0
26/11:00am 22.7 18.7 6.5 35 8.3 NW 17 28 9 15 1017.3 1017.3 0.0
26/10:30am 22.0 18.0 6.7 37 7.8 NNW 17 24 9 13 1017.9 1017.9 0.0
26/10:00am 20.6 17.1 8.6 46 6.3 N 17 26 9 14 1018.3 1018.3 0.0
26/09:30am 18.4 14.7 10.0 58 4.5 N 20 28 11 15 1018.5 1018.5 0.0
26/09:00am 15.9 13.3 10.7 71 2.8 N 15 26 8 14 1018.7 1018.7 0.0
26/08:30am 13.5 10.3 11.4 87 1.1 N 19 26 10 14 1018.7 1018.7 0.0
26/08:00am 11.8 8.5 11.0 95 0.4 N 19 24 10 13 1018.9 1018.9 0.0
26/07:30am 10.4 6.6 9.8 96 0.3 N 20 26 11 14 1019.0 1019.0 0.0
26/07:00am 9.5 6.0 8.9 96 0.3 NNW 17 22 9 12 1018.9 1018.9 0.0
26/06:30am 8.7 5.0 8.1 96 0.3 N 17 24 9 13 1018.5 1018.5 0.0
26/06:00am 9.0 5.4 8.4 96 0.3 N 17 22 9 12 1018.8 1018.8 0.0
26/05:30am 8.8 5.1 8.0 95 0.4 N 17 20 9 11 1018.7 1018.7 0.0
26/05:00am 9.3 6.1 8.5 95 0.4 N 15 20 8 11 1018.7 1018.7 0.0
26/04:30am 9.6 6.5 8.8 95 0.4 N 15 19 8 10 1018.8 1018.8 0.0
26/04:00am 9.8 6.3 8.9 94 0.4 N 17 20 9 11 1018.9 1018.9 0.0
26/03:30am 10.0 6.6 9.1 94 0.4 N 17 20 9 11 1019.0 1019.0 0.0
26/03:00am 10.8 7.6 9.9 94 0.5 N 17 22 9 12 1019.3 1019.3 0.0
26/02:30am 10.9 7.7 9.8 93 0.6 N 17 22 9 12 1019.3 1019.3 0.0
26/02:00am 11.2 7.7 10.1 93 0.6 N 19 22 10 12 1019.3 1019.3 0.0
26/01:30am 11.4 8.2 10.1 92 0.7 N 17 22 9 12 1019.4 1019.4 0.0
26/01:00am 12.0 9.0 10.7 92 0.7 N 17 22 9 12 1019.6 1019.6 0.0
26/12:30am 12.7 10.3 11.4 92 0.7 N 15 20 8 11 1019.9 1019.9 0.0
26/12:00am 12.6 10.5 11.2 91 0.7 NNE 13 17 7 9 1020.1 1020.1 0.0
 
Date/Time
WST
Temp
°C
App
Temp
°C
Dew
Point
°C
Rel
Hum
%
Delta-T
°C
Wind Press
QNH
hPa
Press
MSL
hPa
Rain since
9am
mm
Dir  Spd
km/h
Gust
km/h
Spd
kts
Gust
kts
25/11:30pm 12.8 10.0 11.4 91 0.7 NNE 17 20 9 11 1020.3 1020.3 0.0
25/11:00pm 13.2 10.5 11.8 91 0.7 NNE 17 22 9 12 1020.5 1020.5 0.0
25/10:30pm 13.2 10.5 11.6 90 0.9 NNE 17 24 9 13 1020.8 1020.8 0.0
25/10:00pm 13.6 10.9 11.8 89 1.0 NNE 17 20 9 11 1021.1 1021.1 0.0
25/09:30pm 13.7 11.4 11.9 89 1.0 NNE 15 20 8 11 1021.3 1021.3 0.0
25/09:00pm 13.5 11.9 11.7 89 1.0 NNE 11 13 6 7 1021.3 1021.3 0.0
25/08:30pm 14.2 12.4 12.2 88 1.1 NE 13 17 7 9 1021.0 1021.0 0.0
25/08:00pm 13.9 12.4 11.9 88 1.1 NE 11 13 6 7 1021.0 1021.0 0.0
25/07:30pm 14.2 12.8 12.1 87 1.1 NE 11 15 6 8 1021.2 1021.2 0.0
25/07:00pm 14.5 13.5 12.4 87 1.1 NNE 9 13 5 7 1021.4 1021.4 0.0
25/06:30pm 15.8 14.8 13.3 85 1.4 NE 11 13 6 7 1021.3 1021.3 0.0
25/06:00pm 17.3 15.1 14.4 83 1.7 ENE 19 20 10 11 1021.2 1021.2 0.0
25/05:30pm 17.5 15.4 14.6 83 1.7 E 19 20 10 11 1021.2 1021.2 0.0
25/05:00pm 17.5 15.7 14.4 82 1.8 E 17 20 9 11 1021.2 1021.2 0.0
25/04:30pm 17.6 16.1 14.1 80 2.0 E 15 19 8 10 1021.0 1021.0 0.0
25/04:00pm 18.2 16.5 13.7 75 2.6 ESE 15 17 8 9 1021.1 1021.1 0.0
25/03:30pm 18.5 16.7 13.4 72 2.9 SE 15 17 8 9 1020.9 1020.9 0.0
25/03:00pm 18.9 17.5 13.3 70 3.2 ESE 13 15 7 8 1021.0 1021.0 0.0
25/02:30pm 19.3 17.9 13.3 68 3.4 SE 13 13 7 7 1021.1 1021.1 0.0
25/02:00pm 19.8 18.3 13.0 65 3.8 SE 13 13 7 7 1021.3 1021.3 0.0
25/01:30pm 19.6 17.9 12.6 64 3.9 S 13 15 7 8 1021.4 1021.4 0.0
25/01:00pm 19.1 17.4 12.6 66 3.6 S 13 15 7 8 1021.7 1021.7 0.0
25/12:30pm 19.4 17.8 12.9 66 3.7 S 13 15 7 8 1022.0 1022.0 0.0
25/12:00pm 19.9 18.7 12.7 63 4.0 S 11 13 6 7 1022.2 1022.2 0.0
25/11:30am 19.6 18.4 12.8 65 3.8 S 11 13 6 7 1022.7 1022.7 0.0
25/11:00am 19.4 18.4 12.4 64 3.9 S 9 11 5 6 1023.0 1023.0 0.0
25/10:30am 18.5 17.7 11.6 64 3.8 SSE 7 9 4 5 1023.3 1023.3 0.0
25/10:00am 17.9 17.4 12.6 71 2.9 SSE 7 9 4 5 1023.5 1023.5 0.0
25/09:30am 17.9 17.4 12.8 72 2.8 SSE 7 7 4 4 1023.5 1023.5 0.0
25/09:00am 17.7 17.5 10.3 62 3.9 W 2 9 1 5 1023.3 1023.3 0.0
25/08:30am 14.7 13.2 12.0 84 1.5 NW 11 15 6 8 1023.3 1023.3 0.0
25/08:00am 14.1 12.5 12.7 91 0.8 NW 13 17 7 9 1023.1 1023.1 0.0
25/07:30am 12.7 10.7 11.6 93 0.6 NW 13 17 7 9 1022.7 1022.7 0.0
25/07:00am 11.7 8.7 10.8 94 0.5 NW 17 20 9 11 1022.4 1022.4 0.0
25/06:30am 10.2 6.8 9.3 94 0.4 NW 17 20 9 11 1022.1 1022.1 0.0
25/06:00am 10.7 7.8 9.6 93 0.5 NW 15 19 8 10 1021.8 1021.8 0.0
25/05:30am 11.8 8.8 10.7 93 0.6 NNW 17 19 9 10 1021.6 1021.6 0.0
25/05:00am 12.3 9.8 11.2 93 0.6 NNW 15 17 8 9 1021.4 1021.4 0.0
25/04:30am 12.1 9.6 11.0 93 0.6 NNW 15 19 8 10 1021.3 1021.3 0.0
25/04:00am 12.3 9.8 11.2 93 0.6 NNW 15 15 8 8 1021.1 1021.1 0.0
25/03:30am 11.6 8.9 10.5 93 0.6 NNW 15 17 8 9 1021.1 1021.1 0.0
25/03:00am 11.4 8.7 10.3 93 0.6 NNW 15 19 8 10 1021.1 1021.1 0.0
25/02:30am 11.5 8.4 10.4 93 0.6 NNW 17 19 9 10 1021.1 1021.1 0.0
25/02:00am 11.8 9.1 10.5 92 0.7 N 15 17 8 9 1021.2 1021.2 0.0
25/01:30am 11.7 9.0 10.4 92 0.7 N 15 19 8 10 1021.2 1021.2 0.0
25/01:00am 11.8 9.1 10.5 92 0.7 N 15 19 8 10 1021.2 1021.2 0.0
25/12:30am 11.7 9.4 10.4 92 0.7 N 13 17 7 9 1021.3 1021.3 0.0
25/12:00am 11.2 9.9 9.8 91 0.7 N 7 13 4 7 1021.3 1021.3 0.0
 
Date/Time
WST
Temp
°C
App
Temp
°C
Dew
Point
°C
Rel
Hum
%
Delta-T
°C
Wind Press
QNH
hPa
Press
MSL
hPa
Rain since
9am
mm
Dir  Spd
km/h
Gust
km/h
Spd
kts
Gust
kts
24/11:30pm 11.3 9.6 9.9 91 0.7 N 9 15 5 8 1021.5 1021.5 0.0
24/11:00pm 11.9 10.0 10.5 91 0.7 N 11 13 6 7 1021.8 1021.8 0.0
24/10:30pm 11.8 10.3 10.4 91 0.7 N 9 11 5 6 1022.0 1022.0 0.0
24/10:00pm 11.5 10.2 9.9 90 0.8 NNE 7 9 4 5 1022.0 1022.0 0.0

Other Formats:

Comma delimited format used in spreadsheet applications
http://www.bom.gov.au/fwo/IDW60801/IDW60801.94644.axf

JavaScript Object Notation format (JSON) in row-major order
http://www.bom.gov.au/fwo/IDW60801/IDW60801.94644.json